createdAt,value
2022-12-06T00:01:47.154Z,59.44
2022-12-06T00:05:50.175Z,59.31
2022-12-06T00:09:50.733Z,59.68
2022-12-06T00:13:56.135Z,59.51
2022-12-06T00:17:56.513Z,60.13
2022-12-06T00:21:59.417Z,60.41
2022-12-06T00:25:59.710Z,60.57
2022-12-06T00:30:00.342Z,60.45
2022-12-06T00:34:01.729Z,60.15
2022-12-06T00:38:04.729Z,59.65
2022-12-06T00:42:05.017Z,59.36
2022-12-06T00:46:06.776Z,59.79
2022-12-06T00:50:09.083Z,60.34
2022-12-06T00:54:16.252Z,59.98
2022-12-06T00:58:17.578Z,60.02
2022-12-06T01:02:17.907Z,59.94
2022-12-06T01:06:19.564Z,59.34
2022-12-06T01:10:22.679Z,58.89
2022-12-06T01:14:22.741Z,58.80
2022-12-06T01:18:23.388Z,58.53
2022-12-06T01:22:23.602Z,58.85
2022-12-06T01:26:29.411Z,58.93
2022-12-06T01:30:30.392Z,58.53
2022-12-06T01:34:30.537Z,58.96
2022-12-06T01:38:30.722Z,58.60
2022-12-06T01:42:33.396Z,58.61
2022-12-06T01:46:41.927Z,58.82
2022-12-06T01:50:42.954Z,58.71
2022-12-06T01:54:43.874Z,58.79
2022-12-06T01:58:49.700Z,59.15
2022-12-06T02:02:50.033Z,59.06
2022-12-06T02:06:51.083Z,58.86
2022-12-06T02:10:51.182Z,58.70
2022-12-06T02:14:57.770Z,58.87
2022-12-06T02:19:08.671Z,59.09
2022-12-06T02:23:52.578Z,59.28
2022-12-06T02:28:18.457Z,58.83
2022-12-06T02:32:27.142Z,58.53
2022-12-06T02:36:36.788Z,58.40
2022-12-06T02:40:44.531Z,58.44
2022-12-06T02:44:49.631Z,58.57
2022-12-06T02:48:57.174Z,58.32
2022-12-06T02:53:02.080Z,58.17
2022-12-06T02:57:02.155Z,58.42
2022-12-06T03:01:05.874Z,58.12
2022-12-06T03:05:31.962Z,58.21
2022-12-06T03:09:50.244Z,58.15
2022-12-06T03:14:02.465Z,58.08
2022-12-06T03:18:12.218Z,58.30
2022-12-06T03:22:25.168Z,58.16
2022-12-06T03:26:30.856Z,58.07
2022-12-06T03:30:35.951Z,58.32
2022-12-06T03:34:41.277Z,58.24
2022-12-06T03:38:54.014Z,58.20
2022-12-06T03:42:55.458Z,58.09
2022-12-06T03:47:09.457Z,57.86
2022-12-06T03:51:14.565Z,57.74
2022-12-06T03:55:17.351Z,57.94
2022-12-06T03:59:17.493Z,57.80
2022-12-06T04:03:17.785Z,58.44
2022-12-06T04:07:21.395Z,58.25
2022-12-06T04:11:24.194Z,58.46
2022-12-06T04:15:25.902Z,58.44
2022-12-06T04:19:26.038Z,58.14
2022-12-06T04:23:23.682Z,58.20
2022-12-06T04:27:38.864Z,57.86
2022-12-06T04:31:52.486Z,58.04
2022-12-06T04:36:05.101Z,57.70
2022-12-06T04:40:05.324Z,57.91
2022-12-06T04:44:06.639Z,57.84
2022-12-06T04:48:07.559Z,57.63
2022-12-06T04:52:10.103Z,57.65
2022-12-06T04:56:10.337Z,57.44
2022-12-06T05:00:15.130Z,57.28
2022-12-06T05:04:15.336Z,57.63
2022-12-06T05:08:16.153Z,58.53
2022-12-06T05:12:16.296Z,58.04
2022-12-06T05:16:19.308Z,58.25
2022-12-06T05:20:20.191Z,57.98
2022-12-06T05:24:20.736Z,57.97
2022-12-06T05:28:21.070Z,57.70
2022-12-06T05:32:24.352Z,57.89
2022-12-06T05:36:27.867Z,57.61
2022-12-06T05:40:28.069Z,57.83
2022-12-06T05:44:28.232Z,58.08
2022-12-06T05:48:31.370Z,57.90
2022-12-06T05:52:32.008Z,58.09
2022-12-06T05:56:32.164Z,58.01
2022-12-06T06:00:32.442Z,57.90
2022-12-06T06:04:35.273Z,57.89
2022-12-06T06:08:35.509Z,57.73
2022-12-06T06:12:35.897Z,58.63
2022-12-06T06:16:36.095Z,58.69
2022-12-06T06:20:38.880Z,58.89
2022-12-06T06:24:40.312Z,59.12
2022-12-06T06:28:40.888Z,58.71
2022-12-06T06:32:41.607Z,58.60
2022-12-06T06:36:46.111Z,58.62
2022-12-06T06:40:46.642Z,58.60
2022-12-06T06:44:46.805Z,58.68
2022-12-06T06:48:47.479Z,58.44
2022-12-06T06:52:50.182Z,58.43
2022-12-06T06:56:57.172Z,58.32
2022-12-06T07:01:22.712Z,58.60
2022-12-06T07:06:02.563Z,57.94
2022-12-06T07:10:22.354Z,58.24
2022-12-06T07:14:26.510Z,58.09
2022-12-06T07:18:26.704Z,57.91
2022-12-06T07:22:26.811Z,57.86
2022-12-06T07:26:30.174Z,57.99
2022-12-06T07:30:31.166Z,57.47
2022-12-06T07:34:31.656Z,57.04
2022-12-06T07:38:31.963Z,57.13
2022-12-06T07:42:48.416Z,57.23
2022-12-06T07:46:51.095Z,57.34
2022-12-06T07:50:53.162Z,57.11
2022-12-06T07:54:54.107Z,57.17
2022-12-06T07:59:11.771Z,57.21
2022-12-06T08:03:12.717Z,57.38
2022-12-06T08:07:13.426Z,56.98
2022-12-06T08:11:13.863Z,57.41
2022-12-06T08:15:17.404Z,57.59
2022-12-06T08:19:18.412Z,57.27
2022-12-06T08:23:19.966Z,56.41
2022-12-06T08:27:20.596Z,55.71
2022-12-06T08:31:27.758Z,55.97
2022-12-06T08:35:31.652Z,56.40
2022-12-06T08:39:41.344Z,56.29
2022-12-06T08:43:50.688Z,56.42
2022-12-06T09:04:11.897Z,57.44
2022-12-06T09:31:20.462Z,57.68
2022-12-06T09:36:36.578Z,57.97
2022-12-06T09:41:20.428Z,57.65
2022-12-06T09:46:04.064Z,57.36
2022-12-06T09:50:19.902Z,56.24
2022-12-06T09:54:49.064Z,57.41
2022-12-06T09:59:08.935Z,57.67
2022-12-06T10:03:54.664Z,57.92
2022-12-06T10:08:06.065Z,58.56
2022-12-06T10:12:27.243Z,58.08
2022-12-06T10:16:49.317Z,58.30
2022-12-06T10:21:09.997Z,58.36
2022-12-06T10:25:33.048Z,58.44
2022-12-06T10:29:57.961Z,58.74
2022-12-06T10:34:02.922Z,58.47
2022-12-06T10:38:25.191Z,59.34
2022-12-06T10:42:52.605Z,58.45
2022-12-06T10:53:37.453Z,58.25
2022-12-06T10:57:50.423Z,58.24
2022-12-06T11:02:00.782Z,58.15
2022-12-06T11:06:23.743Z,57.50
2022-12-06T11:11:18.347Z,57.39
2022-12-06T11:15:25.939Z,57.40
2022-12-06T11:19:37.077Z,57.14
2022-12-06T11:24:00.793Z,56.49
2022-12-06T11:28:27.778Z,56.78
2022-12-06T11:32:34.465Z,57.53
2022-12-06T11:36:36.658Z,58.01
2022-12-06T11:40:44.813Z,57.45
2022-12-06T11:44:56.161Z,57.97
2022-12-06T11:48:59.376Z,58.35
2022-12-06T11:53:07.896Z,57.53
2022-12-06T11:57:24.145Z,57.32
2022-12-06T12:02:31.401Z,57.43
2022-12-06T12:06:37.401Z,56.95
2022-12-06T12:11:50.128Z,58.03
2022-12-06T12:15:55.962Z,57.88
2022-12-06T12:20:05.364Z,58.16
2022-12-06T12:29:22.291Z,57.82
2022-12-06T12:33:27.797Z,58.44
2022-12-06T12:50:35.441Z,59.20
2022-12-06T12:54:39.676Z,58.90
2022-12-06T12:58:40.440Z,58.90
2022-12-06T13:02:43.952Z,58.51
2022-12-06T13:06:55.883Z,58.72
2022-12-06T13:11:01.393Z,59.76
2022-12-06T13:15:10.118Z,60.13
2022-12-06T13:19:20.060Z,58.90
2022-12-06T13:23:27.369Z,59.07
2022-12-06T13:27:30.088Z,59.07
2022-12-06T13:31:40.040Z,58.62
2022-12-06T13:35:46.039Z,59.22
2022-12-06T13:39:53.338Z,58.44
2022-12-06T13:43:56.059Z,58.28
2022-12-06T13:47:56.826Z,58.43
2022-12-06T13:52:01.968Z,58.32
2022-12-06T13:56:30.639Z,59.11
2022-12-06T14:00:55.143Z,58.82
2022-12-06T14:04:55.792Z,58.81
2022-12-06T14:09:00.562Z,58.41
2022-12-06T14:13:07.549Z,58.28
2022-12-06T14:17:45.063Z,58.21
2022-12-06T14:21:51.417Z,58.33
2022-12-06T14:31:09.592Z,58.06
2022-12-06T14:35:15.959Z,58.45
2022-12-06T14:39:22.736Z,58.07
2022-12-06T14:43:23.616Z,58.15
2022-12-06T14:47:26.825Z,57.70
2022-12-06T14:51:30.681Z,57.81
2022-12-06T14:55:34.449Z,58.61
2022-12-06T15:04:10.976Z,58.97
2022-12-06T15:08:37.941Z,58.26
2022-12-06T15:12:52.115Z,58.25
2022-12-06T15:17:04.003Z,58.16
2022-12-06T15:21:17.921Z,58.87
2022-12-06T15:25:18.353Z,58.95
2022-12-06T15:29:19.631Z,58.20
2022-12-06T15:33:21.270Z,58.26
2022-12-06T15:37:38.581Z,58.01
2022-12-06T15:41:39.602Z,57.76
2022-12-06T15:45:39.706Z,58.41
2022-12-06T15:49:40.360Z,58.18
2022-12-06T15:53:44.311Z,58.54
2022-12-06T15:57:44.633Z,58.47
2022-12-06T16:01:48.200Z,58.55
2022-12-06T16:05:49.466Z,58.69
2022-12-06T16:09:52.237Z,58.17
2022-12-06T16:13:53.262Z,57.61
2022-12-06T16:17:53.393Z,57.79
2022-12-06T16:21:57.772Z,58.64
2022-12-06T16:26:00.667Z,59.07
2022-12-06T16:30:00.815Z,58.86
2022-12-06T16:34:01.372Z,58.54
2022-12-06T16:38:02.387Z,59.17
2022-12-06T16:42:07.525Z,59.77
2022-12-06T16:46:31.213Z,58.89
2022-12-06T16:50:31.351Z,58.72
2022-12-06T16:54:31.460Z,58.46
2022-12-06T16:58:34.145Z,58.56
2022-12-06T17:02:35.518Z,58.50
2022-12-06T17:06:36.501Z,57.95
2022-12-06T17:10:36.664Z,57.92
2022-12-06T17:14:39.330Z,58.46
2022-12-06T17:18:39.379Z,58.43
2022-12-06T17:22:40.281Z,58.12
2022-12-06T17:26:40.404Z,58.55
2022-12-06T17:30:49.356Z,57.98
2022-12-06T17:34:51.576Z,58.13
2022-12-06T17:38:51.650Z,58.35
2022-12-06T17:43:03.977Z,58.30
2022-12-06T17:47:06.935Z,57.78
2022-12-06T17:51:07.359Z,57.31
2022-12-06T17:55:09.480Z,57.79
2022-12-06T17:59:12.348Z,58.31
2022-12-06T18:03:15.240Z,57.69
2022-12-06T18:07:16.064Z,58.25
2022-12-06T18:11:16.406Z,57.80
2022-12-06T18:15:28.846Z,57.50
2022-12-06T18:19:31.780Z,57.32
2022-12-06T18:23:31.907Z,57.31
2022-12-06T18:27:32.000Z,56.84
2022-12-06T18:31:34.001Z,57.27
2022-12-06T18:35:38.233Z,56.66
2022-12-06T18:39:38.309Z,56.44
2022-12-06T18:43:39.966Z,55.91
2022-12-06T18:47:40.201Z,55.76
2022-12-06T18:51:43.935Z,56.01
2022-12-06T18:55:45.518Z,56.05
2022-12-06T18:59:45.675Z,56.64
2022-12-06T19:03:47.052Z,57.04
2022-12-06T19:07:50.661Z,56.95
2022-12-06T19:11:50.855Z,56.16
2022-12-06T19:15:51.006Z,56.19
2022-12-06T19:19:51.137Z,55.87
2022-12-06T19:23:56.786Z,56.09
2022-12-06T19:27:56.938Z,56.18
2022-12-06T19:31:57.594Z,56.47
2022-12-06T19:36:02.434Z,56.58
2022-12-06T19:40:05.782Z,56.28
2022-12-06T19:44:17.984Z,56.49
2022-12-06T19:48:18.059Z,56.27
2022-12-06T19:52:18.210Z,56.34
2022-12-06T19:56:21.079Z,56.56
2022-12-06T20:00:23.004Z,57.27
2022-12-06T20:04:27.624Z,57.24
2022-12-06T20:08:28.113Z,57.07
2022-12-06T20:12:31.329Z,56.73
2022-12-06T20:16:33.910Z,56.82
2022-12-06T20:20:34.325Z,56.73
2022-12-06T20:29:17.966Z,57.41
2022-12-06T20:33:18.079Z,57.67
2022-12-06T20:37:18.318Z,57.81
2022-12-06T20:41:22.659Z,57.72
2022-12-06T20:45:25.628Z,57.61
2022-12-06T20:49:25.767Z,57.40
2022-12-06T20:53:25.926Z,57.47
2022-12-06T20:57:27.265Z,57.10
2022-12-06T21:01:32.893Z,57.46
2022-12-06T21:05:33.070Z,57.82
2022-12-06T21:09:33.507Z,58.02
2022-12-06T21:13:34.056Z,57.75
2022-12-06T21:17:37.857Z,58.41
2022-12-06T21:21:40.513Z,58.31
2022-12-06T21:25:41.357Z,57.78
2022-12-06T21:29:42.713Z,57.42
2022-12-06T21:33:45.374Z,57.47
2022-12-06T21:37:45.471Z,57.54
2022-12-06T21:41:46.042Z,57.48
2022-12-06T21:45:46.198Z,57.80
2022-12-06T21:49:48.914Z,58.17
2022-12-06T21:53:49.706Z,58.18
2022-12-06T21:57:50.045Z,58.23
2022-12-06T22:01:53.694Z,58.42
2022-12-06T22:05:56.692Z,58.34
2022-12-06T22:09:56.899Z,59.67
2022-12-06T22:13:57.149Z,59.29
2022-12-06T22:17:57.256Z,58.21
2022-12-06T22:22:00.746Z,59.03
2022-12-06T22:26:02.932Z,59.95
2022-12-06T22:30:03.370Z,60.04
2022-12-06T22:34:05.495Z,59.65
2022-12-06T22:38:08.420Z,59.58
2022-12-06T22:42:08.903Z,58.91
2022-12-06T22:46:12.882Z,59.26
2022-12-06T22:50:13.274Z,59.47
2022-12-06T22:54:17.911Z,59.03
2022-12-06T22:58:18.020Z,59.54
2022-12-06T23:02:18.344Z,59.36
2022-12-06T23:06:22.404Z,59.62
2022-12-06T23:10:25.118Z,59.89
2022-12-06T23:14:25.317Z,59.43
2022-12-06T23:18:25.453Z,59.48
2022-12-06T23:22:25.596Z,60.15
2022-12-06T23:26:32.224Z,59.79
2022-12-06T23:30:32.327Z,59.69
2022-12-06T23:34:32.429Z,59.71
2022-12-06T23:38:32.663Z,59.40
2022-12-06T23:42:35.339Z,59.67
2022-12-06T23:46:38.735Z,59.11
2022-12-06T23:50:38.863Z,59.05
2022-12-06T23:54:40.113Z,59.39
2022-12-06T23:58:44.945Z,59.62
